Time;durP1;ratioP1;P1;durP2;ratioP2;P2;SDS_P1;SDS_P2;PMS_P1;PMS_P2;Temp;Humidity;BMP_temperature;BMP_pressure;BME280_temperature;BME280_humidity;BME280_pressure;Samples;Min_cycle;Max_cycle;Signal;HPM_P1;HPM_P2
2023/02/08 00:00:49;;;;;;;231.65;211.98;;;;;;;-5.24;86.62;104267.19;5002867;28;20038;-71
2023/02/08 00:03:14;;;;;;;248.40;228.32;;;;;;;-5.42;86.48;104255.06;4999018;28;20052;-70
2023/02/08 00:05:40;;;;;;;242.68;223.35;;;;;;;-5.29;86.58;104258.72;4998164;28;20050;-70
2023/02/08 00:08:06;;;;;;;244.40;225.10;;;;;;;-5.12;85.88;104259.66;4998315;28;20995;-71
2023/02/08 00:10:32;;;;;;;234.43;214.30;;;;;;;-5.36;86.52;104256.53;5003062;28;20180;-72
2023/02/08 00:12:58;;;;;;;232.23;212.35;;;;;;;-5.49;86.96;104256.31;4996210;28;20125;-72
2023/02/08 00:15:24;;;;;;;231.93;211.93;;;;;;;-5.56;87.16;104254.94;5001498;28;20026;-71
2023/02/08 00:17:49;;;;;;;233.90;214.02;;;;;;;-5.67;87.11;104252.88;4980402;28;20793;-72
2023/02/08 00:20:15;;;;;;;234.63;214.65;;;;;;;-5.75;86.64;104255.03;4995292;28;20049;-72
2023/02/08 00:22:41;;;;;;;241.70;222.52;;;;;;;-5.80;87.16;104254.41;4995464;28;20038;-72
2023/02/08 00:25:07;;;;;;;244.70;225.45;;;;;;;-5.73;86.58;104247.13;4998499;28;20041;-71
2023/02/08 00:27:33;;;;;;;243.82;224.23;;;;;;;-5.71;86.70;104240.88;5007701;28;20022;-70
2023/02/08 00:29:59;;;;;;;241.13;222.02;;;;;;;-5.79;87.20;104243.88;4986803;28;20046;-70
2023/02/08 00:32:24;;;;;;;232.52;212.60;;;;;;;-5.81;87.03;104239.66;4992298;28;20049;-71
2023/02/08 00:34:50;;;;;;;239.88;220.95;;;;;;;-5.86;87.23;104232.06;4971508;28;20081;-72
2023/02/08 00:37:16;;;;;;;246.68;227.18;;;;;;;-5.85;87.46;104238.13;4982546;28;20042;-72
2023/02/08 00:39:42;;;;;;;230.23;210.70;;;;;;;-5.80;87.07;104236.97;5002724;28;20117;-70
2023/02/08 00:42:08;;;;;;;243.75;224.40;;;;;;;-5.82;86.67;104238.81;5008696;28;20539;-72
2023/02/08 00:44:34;;;;;;;242.23;222.90;;;;;;;-5.91;86.94;104230.63;5000421;28;20175;-72
2023/02/08 00:47:00;;;;;;;240.02;220.98;;;;;;;-5.90;86.66;104225.28;4998019;28;20113;-73
2023/02/08 00:49:25;;;;;;;230.35;210.85;;;;;;;-5.90;86.50;104221.81;4998761;28;20035;-73
2023/02/08 00:51:51;;;;;;;229.43;209.65;;;;;;;-5.94;87.05;104217.72;5006115;28;20034;-73
2023/02/08 00:54:18;;;;;;;233.07;213.27;;;;;;;-5.95;87.27;104216.03;5012174;28;20054;-71
2023/02/08 00:56:44;;;;;;;232.27;212.68;;;;;;;-5.94;87.04;104220.34;4984551;28;20046;-73
2023/02/08 00:59:11;;;;;;;244.32;225.20;;;;;;;-6.01;87.11;104222.41;4982654;28;20042;-70
2023/02/08 01:01:37;;;;;;;238.07;219.25;;;;;;;-6.00;87.09;104224.09;4989496;28;20049;-73
2023/02/08 01:04:03;;;;;;;244.13;224.75;;;;;;;-5.86;87.20;104221.59;5029966;28;20381;-70
2023/02/08 01:06:30;;;;;;;228.95;209.25;;;;;;;-5.85;86.51;104220.69;4999587;28;20507;-72
2023/02/08 01:08:55;;;;;;;243.15;223.80;;;;;;;-5.97;86.80;104225.69;4986980;28;20510;-72
2023/02/08 01:11:24;;;;;;;242.05;222.85;;;;;;;-6.08;86.78;104221.88;4998012;28;20033;-72
2023/02/08 01:13:53;;;;;;;232.35;212.40;;;;;;;-6.06;87.31;104229.63;5006258;28;20077;-72
2023/02/08 01:16:21;;;;;;;231.80;212.18;;;;;;;-6.13;87.50;104231.66;4971967;28;20053;-71
2023/02/08 01:18:49;;;;;;;242.70;223.40;;;;;;;-6.21;87.25;104235.59;4990167;28;20128;-71
2023/02/08 01:21:18;;;;;;;244.40;224.90;;;;;;;-6.20;87.71;104234.66;5003985;28;20095;-71
2023/02/08 01:23:45;;;;;;;241.73;222.73;;;;;;;-6.10;87.22;104228.91;4989748;28;20033;-71
2023/02/08 01:26:12;;;;;;;232.43;212.65;;;;;;;-6.07;87.14;104230.53;4987487;28;20491;-73
2023/02/08 01:28:41;;;;;;;241.93;222.75;;;;;;;-6.05;87.04;104231.28;4992406;28;20136;-72
2023/02/08 01:31:10;;;;;;;237.88;217.65;;;;;;;-6.19;87.60;104224.13;5001345;28;20056;-71
2023/02/08 01:33:36;;;;;;;232.25;212.15;;;;;;;-6.18;87.23;104219.75;5006629;28;20034;-71
2023/02/08 01:36:03;;;;;;;233.27;213.40;;;;;;;-6.16;87.01;104217.94;4987398;28;20037;-73
2023/02/08 01:38:29;;;;;;;242.98;223.40;;;;;;;-6.17;87.20;104222.28;4988684;28;20134;-71
2023/02/08 01:40:57;;;;;;;232.30;212.48;;;;;;;-6.17;87.34;104211.00;4988007;28;20046;-72
2023/02/08 01:43:26;;;;;;;243.10;223.73;;;;;;;-6.20;87.43;104212.03;5005878;28;20033;-73
2023/02/08 01:45:53;;;;;;;231.75;212.25;;;;;;;-6.18;87.33;104211.94;5008076;28;20048;-70
2023/02/08 01:48:33;;;;;;;243.93;224.73;;;;;;;-6.18;87.38;104217.16;5009740;28;20042;-72
2023/02/08 01:51:13;;;;;;;228.43;208.68;;;;;;;-6.17;86.80;104200.56;5003218;28;20113;-73
2023/02/08 01:53:43;;;;;;;238.77;219.70;;;;;;;-6.20;86.57;104205.97;5005166;28;20136;-73
2023/02/08 01:56:16;;;;;;;231.52;212.02;;;;;;;-6.23;86.57;104206.09;5015963;28;20550;-70
2023/02/08 01:58:46;;;;;;;230.50;210.73;;;;;;;-6.18;86.30;104214.53;4993823;28;20041;-72
2023/02/08 02:01:12;;;;;;;244.10;224.73;;;;;;;-6.16;86.14;104217.94;5006038;28;20045;-74
2023/02/08 02:03:38;;;;;;;241.68;222.55;;;;;;;-6.27;86.86;104208.03;5010920;28;20037;-70
2023/02/08 02:06:11;;;;;;;231.90;211.88;;;;;;;-6.27;87.26;104220.22;5017831;28;20356;-71
2023/02/08 02:08:43;;;;;;;232.43;212.50;;;;;;;-6.16;86.91;104215.34;4970804;28;20073;-71
2023/02/08 02:11:10;;;;;;;233.20;213.20;;;;;;;-5.98;86.82;104211.81;5000466;28;20034;-72
2023/02/08 02:13:37;;;;;;;242.77;223.30;;;;;;;-5.72;86.70;104213.09;5003464;28;20573;-69
2023/02/08 02:16:02;;;;;;;243.48;224.20;;;;;;;-5.86;86.52;104216.38;5004282;28;20041;-70
2023/02/08 02:18:31;;;;;;;242.13;222.73;;;;;;;-5.91;86.52;104207.13;5005065;28;20052;-71
2023/02/08 02:21:09;;;;;;;245.80;226.23;;;;;;;-5.62;86.17;104209.09;5006021;28;20042;-70
2023/02/08 02:24:02;;;;;;;244.90;225.52;;;;;;;-5.77;86.63;104215.91;4989670;28;20034;-70
2023/02/08 02:26:48;;;;;;;248.07;227.77;;;;;;;-5.74;86.70;104198.44;5009710;28;20038;-69
2023/02/08 02:29:32;;;;;;;245.20;225.38;;;;;;;-5.54;85.88;104198.25;4972793;28;20046;-70
2023/02/08 02:32:11;;;;;;;233.23;213.23;;;;;;;-5.46;85.77;104197.84;5007087;28;20046;-70
2023/02/08 02:34:43;;;;;;;248.05;227.90;;;;;;;-5.32;85.77;104197.97;5006619;28;20049;-74
2023/02/08 02:37:18;;;;;;;236.70;216.52;;;;;;;-4.95;84.38;104204.69;4990908;28;20042;-70
2023/02/08 02:39:51;;;;;;;245.55;225.55;;;;;;;-4.95;84.08;104200.31;4985331;28;20040;-70
2023/02/08 02:45:36;;;;;;;245.90;225.75;;;;;;;-5.09;84.50;104201.97;5004750;28;20053;-72
2023/02/08 02:48:11;;;;;;;252.48;231.63;;;;;;;-5.34;85.47;104203.28;5000683;28;20430;-74
2023/02/08 02:50:51;;;;;;;233.13;212.70;;;;;;;-5.12;84.77;104212.59;5003481;28;20045;-68
2023/02/08 02:53:35;;;;;;;236.70;216.00;;;;;;;-5.12;84.31;104203.00;4984173;28;20973;-72
2023/02/08 02:56:14;;;;;;;245.93;225.93;;;;;;;-5.07;84.35;104207.97;5002880;28;20376;-70
2023/02/08 02:58:42;;;;;;;234.25;214.05;;;;;;;-5.06;83.94;104207.91;4984453;28;20129;-73
2023/02/08 03:01:08;;;;;;;244.95;225.20;;;;;;;-5.14;84.39;104212.69;4999995;28;20072;-71
2023/02/08 03:03:34;;;;;;;246.77;226.88;;;;;;;-5.28;84.48;104218.66;5016395;28;20061;-71
2023/02/08 03:06:05;;;;;;;232.48;211.98;;;;;;;-5.43;85.40;104229.03;5005300;28;20046;-69
2023/02/08 03:08:50;;;;;;;243.50;223.68;;;;;;;-5.54;85.08;104217.38;4988371;28;20443;-70
2023/02/08 03:11:24;;;;;;;234.70;214.20;;;;;;;-5.61;85.72;104207.34;4985741;28;20092;-70
2023/02/08 03:14:03;;;;;;;247.63;227.27;;;;;;;-5.64;85.57;104202.25;4994751;28;20034;-73
2023/02/08 03:16:50;;;;;;;246.48;226.63;;;;;;;-5.75;85.41;104212.41;5002826;28;20113;-68
2023/02/08 03:19:34;;;;;;;233.63;213.27;;;;;;;-5.95;85.58;104216.03;4999280;28;20091;-71
2023/02/08 03:22:18;;;;;;;234.52;213.82;;;;;;;-6.01;85.95;104221.56;4988707;28;20061;-72
2023/02/08 03:24:57;;;;;;;244.05;224.10;;;;;;;-6.06;85.82;104214.78;5002559;28;20060;-71
2023/02/08 03:27:32;;;;;;;233.45;213.23;;;;;;;-6.07;85.87;104220.09;4987424;28;20084;-71
2023/02/08 03:30:27;;;;;;;245.80;226.25;;;;;;;-6.18;86.17;104224.97;5007754;28;20512;-72
2023/02/08 03:33:10;;;;;;;232.05;211.93;;;;;;;-6.21;86.16;104232.97;5006984;28;20207;-73
2023/02/08 03:35:42;;;;;;;243.45;223.52;;;;;;;-6.36;86.33;104232.78;5005323;28;20036;-72
2023/02/08 03:38:22;;;;;;;243.80;224.10;;;;;;;-6.30;86.26;104243.81;4986183;28;20407;-70
2023/02/08 03:40:51;;;;;;;229.70;209.98;;;;;;;-6.24;86.01;104246.16;5002789;28;20045;-72
2023/02/08 03:43:22;;;;;;;232.88;212.70;;;;;;;-6.23;85.59;104246.09;5003101;28;20042;-69
2023/02/08 03:46:01;;;;;;;243.85;223.85;;;;;;;-6.32;86.18;104236.09;4974702;28;20072;-71
2023/02/08 03:48:29;;;;;;;234.75;214.25;;;;;;;-6.23;86.06;104237.41;4986721;28;20044;-71
2023/02/08 03:50:57;;;;;;;235.27;214.57;;;;;;;-6.01;85.61;104232.84;5004894;28;20074;-68
2023/02/08 03:53:25;;;;;;;244.15;224.23;;;;;;;-6.06;85.79;104232.22;4998299;28;20823;-72
2023/02/08 03:55:57;;;;;;;237.52;216.90;;;;;;;-6.19;86.12;104238.94;4999079;28;20054;-69
2023/02/08 03:58:30;;;;;;;240.90;221.45;;;;;;;-6.21;85.91;104230.38;5014386;28;20038;-70
2023/02/08 04:01:14;;;;;;;244.80;224.82;;;;;;;-5.90;85.59;104232.28;5001997;28;20046;-71
2023/02/08 04:03:40;;;;;;;245.70;225.52;;;;;;;-5.78;85.00;104224.69;4986765;28;20053;-69
2023/02/08 04:06:08;;;;;;;248.98;228.45;;;;;;;-5.73;84.69;104215.78;4995484;28;20175;-69
2023/02/08 04:08:34;;;;;;;236.63;216.02;;;;;;;-5.70;84.49;104220.84;5000157;28;21751;-69
2023/02/08 04:10:59;;;;;;;236.23;215.80;;;;;;;-5.71;84.60;104232.19;4999874;28;20180;-70
2023/02/08 04:13:25;;;;;;;237.40;216.43;;;;;;;-5.86;85.22;104226.00;5000858;28;20125;-69
2023/02/08 04:15:51;;;;;;;235.20;214.57;;;;;;;-5.89;84.79;104227.00;5000168;28;20057;-73
2023/02/08 04:18:16;;;;;;;247.77;227.32;;;;;;;-5.95;84.96;104232.56;5005142;28;20038;-71
2023/02/08 04:20:42;;;;;;;236.75;216.02;;;;;;;-5.99;84.68;104225.78;5005687;28;20486;-72
2023/02/08 04:23:08;;;;;;;247.70;227.48;;;;;;;-6.09;85.08;104232.38;5009123;28;20454;-69
2023/02/08 04:25:33;;;;;;;248.02;227.85;;;;;;;-6.26;85.76;104234.94;5023839;28;20065;-71
2023/02/08 04:28:01;;;;;;;249.18;228.73;;;;;;;-6.35;85.83;104233.63;5003227;28;20025;-70
2023/02/08 04:30:27;;;;;;;248.23;227.77;;;;;;;-6.20;85.57;104234.66;5008065;28;20142;-70
2023/02/08 04:32:53;;;;;;;240.13;218.90;;;;;;;-6.30;85.83;104230.78;5003430;28;20136;-69
2023/02/08 04:35:19;;;;;;;247.25;226.90;;;;;;;-6.25;85.83;104231.41;4999992;28;20127;-73
2023/02/08 04:37:44;;;;;;;245.30;225.32;;;;;;;-6.10;85.14;104223.69;4985266;28;20064;-73
2023/02/08 04:40:10;;;;;;;238.43;217.52;;;;;;;-6.05;85.25;104219.09;5006250;28;20029;-70
2023/02/08 04:42:35;;;;;;;252.90;232.05;;;;;;;-5.92;84.95;104221.09;5008912;28;20509;-71
2023/02/08 04:45:02;;;;;;;237.50;216.38;;;;;;;-5.90;85.12;104214.00;5003782;28;20558;-70
2023/02/08 04:47:27;;;;;;;249.63;228.88;;;;;;;-5.92;85.01;104224.56;5000344;28;20041;-71
2023/02/08 04:49:55;;;;;;;245.75;225.55;;;;;;;-5.86;85.10;104212.94;4988985;28;20069;-72
2023/02/08 04:52:21;;;;;;;249.50;229.18;;;;;;;-6.05;85.28;104221.69;5002226;28;20092;-71
2023/02/08 04:54:47;;;;;;;249.35;228.93;;;;;;;-6.01;85.85;104226.78;4996571;28;20046;-72
2023/02/08 04:57:13;;;;;;;254.82;233.82;;;;;;;-5.83;85.12;104226.66;5015707;28;20030;-71
2023/02/08 04:59:39;;;;;;;247.35;226.88;;;;;;;-5.56;84.30;104221.81;5007490;28;20140;-70
2023/02/08 05:02:04;;;;;;;238.93;217.63;;;;;;;-5.65;84.41;104211.84;4989229;28;20160;-72
2023/02/08 05:04:30;;;;;;;237.68;216.95;;;;;;;-5.52;84.25;104215.53;5003406;28;20572;-72
2023/02/08 05:06:56;;;;;;;240.25;218.82;;;;;;;-5.41;83.95;104211.53;5003453;28;20096;-72
2023/02/08 05:09:22;;;;;;;252.40;231.70;;;;;;;-5.28;83.63;104208.19;4989041;28;20043;-73
2023/02/08 05:11:47;;;;;;;240.20;218.88;;;;;;;-5.29;83.25;104211.69;4998673;28;20072;-72
2023/02/08 05:14:13;;;;;;;241.45;220.40;;;;;;;-5.38;83.54;104211.34;4999004;28;20117;-71
2023/02/08 05:16:39;;;;;;;251.48;230.23;;;;;;;-5.19;82.91;104206.00;4988207;28;20189;-70
2023/02/08 05:19:05;;;;;;;254.88;233.25;;;;;;;-5.22;82.45;104207.88;5004074;28;20034;-71
2023/02/08 05:21:31;;;;;;;242.13;220.45;;;;;;;-5.36;83.14;104210.34;4987460;28;20088;-71
2023/02/08 05:23:56;;;;;;;241.75;220.25;;;;;;;-5.38;83.34;104211.34;5004517;28;20491;-70
2023/02/08 05:26:22;;;;;;;239.63;218.27;;;;;;;-5.37;83.50;104206.03;5001007;28;20037;-69
2023/02/08 05:28:50;;;;;;;252.40;231.45;;;;;;;-5.43;83.32;104208.97;4990713;28;20452;-70
2023/02/08 05:31:19;;;;;;;241.00;219.60;;;;;;;-5.38;83.63;104213.97;5000943;28;20038;-70
2023/02/08 05:33:45;;;;;;;254.45;233.10;;;;;;;-5.33;83.31;104219.81;5006494;28;20103;-70
2023/02/08 05:36:11;;;;;;;240.00;218.68;;;;;;;-5.38;83.81;104208.75;5000964;28;20391;-73
2023/02/08 05:38:39;;;;;;;251.95;230.98;;;;;;;-5.45;83.54;104208.22;5005813;28;20477;-72
2023/02/08 05:41:05;;;;;;;253.27;232.15;;;;;;;-5.54;83.61;104206.94;4988246;28;20053;-70
2023/02/08 05:43:33;;;;;;;240.95;219.43;;;;;;;-5.56;84.09;104205.31;4992911;28;20136;-72
2023/02/08 05:45:58;;;;;;;245.13;223.40;;;;;;;-5.59;83.86;104213.31;4987139;28;20051;-70
2023/02/08 05:48:24;;;;;;;251.68;230.32;;;;;;;-5.67;84.30;104208.47;5000491;28;20026;-70
2023/02/08 05:50:49;;;;;;;252.70;230.98;;;;;;;-5.68;84.42;104206.78;5003689;28;20147;-71
2023/02/08 05:53:15;;;;;;;240.68;219.52;;;;;;;-5.55;83.87;104196.56;4994773;28;20503;-70
2023/02/08 05:55:45;;;;;;;254.30;233.10;;;;;;;-5.56;83.66;104197.47;4989012;28;20451;-70
2023/02/08 05:58:11;;;;;;;241.60;220.07;;;;;;;-5.59;83.56;104195.88;4984210;28;20038;-69
2023/02/08 06:00:37;;;;;;;254.90;233.68;;;;;;;-5.71;84.05;104193.03;5004294;28;20129;-69
2023/02/08 06:03:03;;;;;;;252.25;231.15;;;;;;;-5.61;83.66;104196.88;5001381;28;20034;-69
2023/02/08 06:05:29;;;;;;;251.45;230.38;;;;;;;-5.52;83.03;104199.00;4995045;28;20389;-71
2023/02/08 06:07:54;;;;;;;242.98;221.20;;;;;;;-5.54;82.90;104198.25;4983180;28;20496;-71
2023/02/08 06:10:20;;;;;;;254.90;233.85;;;;;;;-5.54;83.04;104198.25;5002169;28;20148;-70
2023/02/08 06:12:45;;;;;;;242.00;220.48;;;;;;;-5.50;82.80;104203.22;4964948;28;20511;-71
2023/02/08 06:15:11;;;;;;;240.73;219.40;;;;;;;-5.47;81.88;104197.00;4995042;28;20761;-71
2023/02/08 06:17:37;;;;;;;254.52;233.18;;;;;;;-5.46;82.17;104198.69;5002059;28;20260;-73
2023/02/08 06:20:03;;;;;;;240.82;219.35;;;;;;;-5.51;82.42;104198.09;5003308;28;20546;-72
2023/02/08 06:22:29;;;;;;;243.13;221.45;;;;;;;-5.43;82.18;104198.53;4983294;28;20033;-73
2023/02/08 06:24:54;;;;;;;253.05;231.38;;;;;;;-5.52;82.17;104204.22;5001598;28;20380;-72
2023/02/08 06:27:20;;;;;;;242.05;220.30;;;;;;;-5.51;82.20;104211.16;5003095;28;20069;-71
2023/02/08 06:29:46;;;;;;;255.63;234.10;;;;;;;-5.54;81.81;104211.31;5002343;28;20383;-73
2023/02/08 06:32:12;;;;;;;245.93;223.93;;;;;;;-5.68;82.89;104219.84;5007474;28;20041;-72
2023/02/08 06:34:37;;;;;;;244.32;222.65;;;;;;;-5.61;82.06;104217.78;5002683;28;20491;-72
2023/02/08 06:37:04;;;;;;;241.45;219.80;;;;;;;-5.57;82.33;104227.13;4998826;28;20049;-71
2023/02/08 06:39:30;;;;;;;252.40;231.25;;;;;;;-5.66;82.48;104227.59;4998651;28;20113;-73
2023/02/08 06:41:58;;;;;;;243.80;221.88;;;;;;;-5.64;82.50;104216.16;4988503;28;20067;-72
2023/02/08 06:44:24;;;;;;;254.30;232.82;;;;;;;-5.64;82.34;104212.69;5003105;28;20385;-69
2023/02/08 06:46:50;;;;;;;254.98;233.23;;;;;;;-5.74;83.02;104217.56;5002697;28;20045;-71
2023/02/08 06:49:16;;;;;;;250.15;228.98;;;;;;;-5.70;82.87;104210.38;5007822;28;20490;-68
2023/02/08 06:51:41;;;;;;;253.57;232.10;;;;;;;-5.77;82.55;104215.91;5007077;28;20044;-68
2023/02/08 06:54:07;;;;;;;242.05;220.07;;;;;;;-5.80;83.38;104218.69;4987377;28;20025;-74
2023/02/08 06:56:33;;;;;;;254.80;233.15;;;;;;;-5.65;82.57;104224.91;5001555;28;20030;-70
2023/02/08 06:58:58;;;;;;;253.38;231.90;;;;;;;-5.78;82.95;104229.06;5003418;28;20026;-69
2023/02/08 07:01:24;;;;;;;255.20;233.40;;;;;;;-5.66;82.10;104232.81;5003473;28;20026;-70
2023/02/08 07:03:49;;;;;;;255.75;233.98;;;;;;;-5.67;82.40;104237.19;5004776;28;20047;-73
2023/02/08 07:06:17;;;;;;;242.60;220.70;;;;;;;-5.59;82.02;104245.50;4987041;28;20038;-72
2023/02/08 07:08:44;;;;;;;255.15;233.68;;;;;;;-5.57;82.10;104240.19;5001417;28;20036;-72
2023/02/08 07:11:12;;;;;;;245.05;223.30;;;;;;;-5.57;81.78;104237.56;4983639;28;20037;-70
2023/02/08 07:13:38;;;;;;;256.60;234.85;;;;;;;-5.50;81.81;104218.91;4985935;28;20124;-72
2023/02/08 07:16:05;;;;;;;250.73;229.43;;;;;;;-5.40;81.45;104219.28;5000528;28;20101;-71
2023/02/08 07:18:33;;;;;;;256.73;234.90;;;;;;;-5.38;81.49;104216.59;5022651;28;20030;-71
2023/02/08 07:20:59;;;;;;;241.80;220.10;;;;;;;-5.48;81.83;104216.22;4986937;28;20034;-72
2023/02/08 07:23:25;;;;;;;257.63;235.32;;;;;;;-5.40;81.81;104213.22;4985422;28;20395;-71
2023/02/08 07:26:02;;;;;;;254.68;233.20;;;;;;;-5.18;81.56;104218.16;5005144;28;20091;-72
2023/02/08 07:28:28;;;;;;;244.48;222.57;;;;;;;-5.13;81.15;104214.38;5009149;28;20092;-71
2023/02/08 07:30:54;;;;;;;252.68;231.15;;;;;;;-5.16;81.24;104221.53;5003538;28;20046;-73
2023/02/08 07:33:20;;;;;;;243.18;221.13;;;;;;;-5.13;80.96;104211.75;5006058;28;20506;-72
2023/02/08 07:35:45;;;;;;;245.95;223.27;;;;;;;-5.02;80.95;104212.00;5001350;28;20041;-73
2023/02/08 07:38:13;;;;;;;257.70;235.93;;;;;;;-4.93;80.29;104205.47;4999770;28;20763;-71
2023/02/08 07:40:39;;;;;;;255.70;233.90;;;;;;;-4.97;80.80;104193.47;5002691;28;20442;-70
2023/02/08 07:43:04;;;;;;;255.60;234.00;;;;;;;-4.97;80.73;104196.09;4998887;28;20531;-72
2023/02/08 07:45:40;;;;;;;253.70;231.82;;;;;;;-4.91;80.65;104205.38;5002985;28;20034;-75
2023/02/08 07:48:06;;;;;;;245.18;223.02;;;;;;;-4.72;80.28;104190.38;4994892;28;20031;-73
2023/02/08 07:50:32;;;;;;;245.13;222.93;;;;;;;-4.71;79.95;104194.69;4979604;28;20034;-73
2023/02/08 07:52:58;;;;;;;244.68;222.50;;;;;;;-4.70;80.44;104199.81;5000107;28;20100;-72
2023/02/08 07:55:24;;;;;;;255.27;233.77;;;;;;;-4.59;80.35;104207.09;5031456;28;20037;-70
2023/02/08 07:57:50;;;;;;;256.67;234.68;;;;;;;-4.53;79.93;104205.91;4997887;28;20669;-72
2023/02/08 08:00:17;;;;;;;247.45;225.00;;;;;;;-4.51;79.65;104198.81;5017825;28;20162;-71
2023/02/08 08:02:43;;;;;;;255.38;233.52;;;;;;;-4.38;80.31;104198.97;4993266;28;20387;-71
2023/02/08 08:05:09;;;;;;;244.07;221.93;;;;;;;-4.33;79.60;104195.16;4985423;28;20037;-70
2023/02/08 08:07:35;;;;;;;241.45;220.00;;;;;;;-4.34;79.27;104203.91;4999076;28;20029;-70
2023/02/08 08:10:02;;;;;;;257.42;235.57;;;;;;;-4.23;79.06;104198.09;5000229;28;20048;-72
2023/02/08 08:12:28;;;;;;;253.10;231.50;;;;;;;-4.20;78.95;104193.53;4998986;28;20126;-70
2023/02/08 08:14:54;;;;;;;244.40;222.27;;;;;;;-4.16;78.86;104200.25;4989964;28;20499;-70
2023/02/08 08:17:20;;;;;;;257.25;235.73;;;;;;;-4.16;78.64;104194.19;5001087;28;20037;-71
2023/02/08 08:19:45;;;;;;;256.02;234.63;;;;;;;-4.18;78.23;104191.66;4986933;28;20403;-71
2023/02/08 08:22:11;;;;;;;254.98;233.30;;;;;;;-4.01;79.05;104198.53;5014013;28;20072;-71
2023/02/08 08:24:36;;;;;;;257.23;235.32;;;;;;;-4.01;78.47;104200.31;4986098;28;20033;-70
2023/02/08 08:27:04;;;;;;;243.20;221.38;;;;;;;-3.86;77.81;104197.66;5003474;28;20092;-72
2023/02/08 08:29:34;;;;;;;257.60;235.43;;;;;;;-3.90;77.60;104193.53;5003898;28;20036;-69
2023/02/08 08:32:00;;;;;;;242.73;220.45;;;;;;;-3.84;78.16;104200.19;5002117;28;20034;-70
2023/02/08 08:34:29;;;;;;;242.63;220.85;;;;;;;-3.79;77.59;104198.16;5004813;28;20112;-70
2023/02/08 08:37:00;;;;;;;247.07;224.70;;;;;;;-3.84;77.79;104189.72;5002896;28;20044;-72
2023/02/08 08:39:27;;;;;;;256.30;234.77;;;;;;;-3.77;77.79;104180.56;5013746;28;20111;-70
2023/02/08 08:42:05;;;;;;;245.70;223.38;;;;;;;-3.62;77.72;104176.16;4969884;28;20522;-70
2023/02/08 08:44:31;;;;;;;256.42;234.32;;;;;;;-3.48;77.81;104177.97;4997475;28;20595;-70
2023/02/08 08:46:59;;;;;;;256.88;234.93;;;;;;;-3.39;77.48;104174.75;5000127;28;20116;-70
2023/02/08 08:49:26;;;;;;;257.60;235.68;;;;;;;-3.40;77.49;104179.16;5000465;28;20772;-71
2023/02/08 08:51:52;;;;;;;257.20;235.13;;;;;;;-3.24;76.61;104184.34;5002017;28;20116;-70
2023/02/08 08:54:18;;;;;;;248.30;225.50;;;;;;;-3.20;76.62;104184.97;5000568;28;20129;-72
2023/02/08 08:56:44;;;;;;;262.58;239.77;;;;;;;-3.05;76.10;104174.41;4984319;28;20219;-71
2023/02/08 08:59:10;;;;;;;248.32;225.55;;;;;;;-2.97;75.61;104173.06;4995264;28;20076;-72
2023/02/08 09:01:36;;;;;;;261.40;238.90;;;;;;;-3.02;75.68;104174.19;5007422;28;20038;-73
2023/02/08 09:04:01;;;;;;;257.63;235.93;;;;;;;-2.89;74.86;104178.69;4989940;28;20037;-70
2023/02/08 09:06:27;;;;;;;259.50;237.38;;;;;;;-3.03;74.54;104175.13;4992439;28;20068;-72
2023/02/08 09:08:53;;;;;;;257.95;236.02;;;;;;;-2.87;74.95;104171.53;4982553;28;20035;-73
2023/02/08 09:11:18;;;;;;;246.05;223.95;;;;;;;-2.82;74.83;104169.47;5002735;28;20061;-72
2023/02/08 09:13:44;;;;;;;258.63;236.32;;;;;;;-2.61;74.38;104173.34;5002729;28;20108;-69
2023/02/08 09:16:16;;;;;;;246.45;223.95;;;;;;;-2.71;73.48;104172.25;5013183;28;20037;-73
2023/02/08 09:18:45;;;;;;;243.30;221.27;;;;;;;-2.56;74.10;104170.44;4993815;28;20030;-70
2023/02/08 09:21:14;;;;;;;244.02;222.10;;;;;;;-2.44;73.41;104169.63;5008975;28;20026;-72
2023/02/08 09:23:40;;;;;;;254.98;232.93;;;;;;;-2.36;72.81;104169.97;5003099;28;20450;-70
2023/02/08 09:26:08;;;;;;;246.88;224.52;;;;;;;-2.26;72.96;104173.69;5005033;28;20526;-71
2023/02/08 09:28:34;;;;;;;255.85;234.23;;;;;;;-2.23;72.51;104170.03;5003554;28;20065;-70
2023/02/08 09:31:26;;;;;;;257.85;235.63;;;;;;;-2.18;73.24;104167.91;5001704;28;20058;-71
2023/02/08 09:33:53;;;;;;;254.80;233.18;;;;;;;-1.99;70.70;104171.00;4973313;28;20161;-73
2023/02/08 09:36:23;;;;;;;260.10;237.80;;;;;;;-1.99;71.74;104165.75;4998489;28;20040;-70
2023/02/08 09:38:50;;;;;;;253.93;230.43;;;;;;;-1.92;71.39;104156.50;5007648;28;20098;-70
2023/02/08 09:41:31;;;;;;;262.88;240.25;;;;;;;-1.67;70.91;104155.69;5003518;28;20388;-73
2023/02/08 09:44:21;;;;;;;252.68;229.00;;;;;;;-1.82;71.04;104156.75;4989098;28;20117;-72
2023/02/08 09:46:58;;;;;;;257.08;233.10;;;;;;;-1.54;70.75;104168.84;5018899;28;20100;-72
2023/02/08 09:49:35;;;;;;;253.43;229.70;;;;;;;-1.59;70.52;104162.22;5005779;28;20034;-71
2023/02/08 09:52:05;;;;;;;252.45;229.43;;;;;;;-1.62;70.19;104168.53;5006182;28;20041;-71
2023/02/08 09:54:36;;;;;;;261.45;238.65;;;;;;;-1.67;70.58;104160.94;5007255;28;20033;-73
2023/02/08 09:57:09;;;;;;;252.73;228.88;;;;;;;-1.63;71.12;104165.97;5002916;28;20038;-70
2023/02/08 09:59:45;;;;;;;267.33;244.00;;;;;;;-1.64;70.93;104170.41;4987093;28;20442;-71
2023/02/08 10:02:11;;;;;;;265.33;242.07;;;;;;;-1.53;70.30;104172.31;5005176;28;20084;-71
2023/02/08 10:04:47;;;;;;;265.40;241.88;;;;;;;-1.49;70.11;104169.38;4986844;28;20041;-72
2023/02/08 10:07:13;;;;;;;259.95;237.20;;;;;;;-1.69;70.85;104162.00;5005077;28;20065;-72
2023/02/08 10:09:38;;;;;;;269.33;245.70;;;;;;;-1.28;70.42;104172.28;5003766;28;20069;-70
2023/02/08 10:12:27;;;;;;;264.80;241.75;;;;;;;-1.35;70.37;104164.91;4983495;28;20049;-70
2023/02/08 10:15:19;;;;;;;250.73;227.38;;;;;;;-1.33;69.26;104176.19;4988506;28;20848;-70
2023/02/08 10:18:05;;;;;;;255.75;231.43;;;;;;;-1.23;69.50;104174.56;4984335;28;20042;-69
2023/02/08 10:20:57;;;;;;;280.83;256.27;;;;;;;-1.14;69.31;104176.59;4997597;28;20781;-71
2023/02/08 10:23:56;;;;;;;247.75;225.75;;;;;;;-1.04;68.54;104174.97;5001636;28;20048;-71
2023/02/08 10:26:31;;;;;;;255.68;233.68;;;;;;;-0.91;68.43;104167.88;4997191;28;20411;-71
2023/02/08 10:29:15;;;;;;;246.50;224.25;;;;;;;-0.93;68.30;104167.16;4971194;28;20404;-73
2023/02/08 10:31:55;;;;;;;258.00;235.90;;;;;;;-0.75;67.77;104174.66;4997537;28;20027;-73
2023/02/08 10:34:31;;;;;;;255.60;233.60;;;;;;;-0.82;66.91;104164.56;4999993;28;20049;-74
2023/02/08 10:37:00;;;;;;;257.27;235.43;;;;;;;-0.78;66.34;104161.75;4999947;28;20562;-71
2023/02/08 10:39:30;;;;;;;254.32;232.80;;;;;;;-0.69;67.28;104161.91;4997764;28;20049;-74
2023/02/08 10:41:56;;;;;;;262.17;239.35;;;;;;;-0.58;67.23;104164.59;5001806;28;20068;-73
2023/02/08 10:44:48;;;;;;;261.65;239.68;;;;;;;-0.60;66.68;104173.56;4983871;28;20475;-73
2023/02/08 10:47:46;;;;;;;259.33;237.00;;;;;;;-0.26;65.77;104165.84;4997538;28;20034;-73
2023/02/08 10:50:23;;;;;;;257.70;236.05;;;;;;;-0.29;65.48;104173.00;4994607;28;20518;-74
2023/02/08 10:52:51;;;;;;;251.63;230.05;;;;;;;-0.23;65.50;104165.59;4998588;28;20041;-72
2023/02/08 10:55:19;;;;;;;239.55;217.38;;;;;;;0.09;63.91;104156.09;5000263;28;20033;-73
2023/02/08 10:57:47;;;;;;;254.60;232.70;;;;;;;0.09;64.11;104156.09;4996859;28;20053;-73
2023/02/08 11:00:19;;;;;;;250.88;228.98;;;;;;;0.05;63.93;104149.38;4998901;28;20427;-71
2023/02/08 11:02:48;;;;;;;239.02;217.25;;;;;;;0.18;63.57;104152.75;4999305;28;20036;-72
2023/02/08 11:05:29;;;;;;;249.60;227.95;;;;;;;0.15;63.67;104150.38;5000420;28;20770;-73
2023/02/08 11:08:10;;;;;;;250.77;229.10;;;;;;;0.25;63.12;104148.69;5002947;28;20064;-72